sensor_id;sensor_type;location;lat;lon;timestamp;P1;P2;P0
42410;PMS5003;28056;51.112;0.984;2023-03-01T00:01:32;50;45;
42410;PMS5003;28056;51.112;0.984;2023-03-01T00:03:59;48;42;
42410;PMS5003;28056;51.112;0.984;2023-03-01T00:06:26;52;47;
42410;PMS5003;28056;51.112;0.984;2023-03-01T00:08:53;40;37;
42410;PMS5003;28056;51.112;0.984;2023-03-01T00:11:22;49;44;
42410;PMS5003;28056;51.112;0.984;2023-03-01T00:13:52;49;43;
42410;PMS5003;28056;51.112;0.984;2023-03-01T00:16:21;40;36;
42410;PMS5003;28056;51.112;0.984;2023-03-01T00:18:50;46;40;
42410;PMS5003;28056;51.112;0.984;2023-03-01T00:21:18;57;43;
42410;PMS5003;28056;51.112;0.984;2023-03-01T00:23:47;46;39;
42410;PMS5003;28056;51.112;0.984;2023-03-01T00:26:15;44;38;
42410;PMS5003;28056;51.112;0.984;2023-03-01T00:28:44;53;47;
42410;PMS5003;28056;51.112;0.984;2023-03-01T00:31:13;43;42;
42410;PMS5003;28056;51.112;0.984;2023-03-01T00:33:43;54;45;
42410;PMS5003;28056;51.112;0.984;2023-03-01T00:36:12;55;47;
42410;PMS5003;28056;51.112;0.984;2023-03-01T00:38:41;51;47;
42410;PMS5003;28056;51.112;0.984;2023-03-01T00:41:11;54;45;
42410;PMS5003;28056;51.112;0.984;2023-03-01T00:43:40;44;44;
42410;PMS5003;28056;51.112;0.984;2023-03-01T00:46:09;48;44;
42410;PMS5003;28056;51.112;0.984;2023-03-01T00:48:39;51;42;
42410;PMS5003;28056;51.112;0.984;2023-03-01T00:51:08;54;47;
42410;PMS5003;28056;51.112;0.984;2023-03-01T00:53:37;42;40;
42410;PMS5003;28056;51.112;0.984;2023-03-01T00:56:06;42;41;
42410;PMS5003;28056;51.112;0.984;2023-03-01T00:58:35;47;47;
42410;PMS5003;28056;51.112;0.984;2023-03-01T01:04:46;41;41;
42410;PMS5003;28056;51.112;0.984;2023-03-01T01:07:14;49;45;
42410;PMS5003;28056;51.112;0.984;2023-03-01T01:09:42;49;42;
42410;PMS5003;28056;51.112;0.984;2023-03-01T01:12:10;53;42;
42410;PMS5003;28056;51.112;0.984;2023-03-01T01:14:38;53;44;
42410;PMS5003;28056;51.112;0.984;2023-03-01T01:17:05;58;42;
42410;PMS5003;28056;51.112;0.984;2023-03-01T01:19:33;49;45;
42410;PMS5003;28056;51.112;0.984;2023-03-01T01:22:00;52;46;
42410;PMS5003;28056;51.112;0.984;2023-03-01T01:24:28;53;43;
42410;PMS5003;28056;51.112;0.984;2023-03-01T01:26:55;46;45;
42410;PMS5003;28056;51.112;0.984;2023-03-01T01:29:22;46;42;
42410;PMS5003;28056;51.112;0.984;2023-03-01T01:31:50;53;50;
42410;PMS5003;28056;51.112;0.984;2023-03-01T01:34:19;50;45;
42410;PMS5003;28056;51.112;0.984;2023-03-01T01:36:48;49;42;
42410;PMS5003;28056;51.112;0.984;2023-03-01T01:39:17;48;44;
42410;PMS5003;28056;51.112;0.984;2023-03-01T01:41:44;43;38;
42410;PMS5003;28056;51.112;0.984;2023-03-01T01:44:14;50;46;
42410;PMS5003;28056;51.112;0.984;2023-03-01T01:46:44;46;42;
42410;PMS5003;28056;51.112;0.984;2023-03-01T01:49:17;46;42;
42410;PMS5003;28056;51.112;0.984;2023-03-01T01:51:52;55;48;
42410;PMS5003;28056;51.112;0.984;2023-03-01T01:54:27;52;45;
42410;PMS5003;28056;51.112;0.984;2023-03-01T01:57:03;49;42;
42410;PMS5003;28056;51.112;0.984;2023-03-01T01:59:37;50;40;
42410;PMS5003;28056;51.112;0.984;2023-03-01T02:02:05;47;45;
42410;PMS5003;28056;51.112;0.984;2023-03-01T02:04:32;51;42;
42410;PMS5003;28056;51.112;0.984;2023-03-01T02:07:00;54;45;
42410;PMS5003;28056;51.112;0.984;2023-03-01T02:09:31;53;50;
42410;PMS5003;28056;51.112;0.984;2023-03-01T02:12:00;56;49;
42410;PMS5003;28056;51.112;0.984;2023-03-01T02:14:30;50;45;
42410;PMS5003;28056;51.112;0.984;2023-03-01T02:16:57;46;45;
42410;PMS5003;28056;51.112;0.984;2023-03-01T02:19:28;46;45;
42410;PMS5003;28056;51.112;0.984;2023-03-01T02:22:10;58;52;
42410;PMS5003;28056;51.112;0.984;2023-03-01T02:24:48;47;45;
42410;PMS5003;28056;51.112;0.984;2023-03-01T02:27:25;61;52;
42410;PMS5003;28056;51.112;0.984;2023-03-01T02:29:59;50;45;
42410;PMS5003;28056;51.112;0.984;2023-03-01T02:32:26;53;48;
42410;PMS5003;28056;51.112;0.984;2023-03-01T02:34:55;53;46;
42410;PMS5003;28056;51.112;0.984;2023-03-01T02:37:22;52;46;
42410;PMS5003;28056;51.112;0.984;2023-03-01T02:41:08;57;55;
42410;PMS5003;28056;51.112;0.984;2023-03-01T02:43:39;49;45;
42410;PMS5003;28056;51.112;0.984;2023-03-01T02:46:07;50;47;
42410;PMS5003;28056;51.112;0.984;2023-03-01T02:48:40;55;53;
42410;PMS5003;28056;51.112;0.984;2023-03-01T02:51:11;45;45;
42410;PMS5003;28056;51.112;0.984;2023-03-01T02:53:51;54;48;
42410;PMS5003;28056;51.112;0.984;2023-03-01T02:56:27;53;47;
42410;PMS5003;28056;51.112;0.984;2023-03-01T02:58:55;47;46;
42410;PMS5003;28056;51.112;0.984;2023-03-01T03:01:23;50;43;
42410;PMS5003;28056;51.112;0.984;2023-03-01T03:03:51;60;50;
42410;PMS5003;28056;51.112;0.984;2023-03-01T03:06:18;64;51;
42410;PMS5003;28056;51.112;0.984;2023-03-01T03:08:46;51;46;
42410;PMS5003;28056;51.112;0.984;2023-03-01T03:11:13;49;46;
42410;PMS5003;28056;51.112;0.984;2023-03-01T03:13:40;49;42;
42410;PMS5003;28056;51.112;0.984;2023-03-01T03:16:07;50;42;
42410;PMS5003;28056;51.112;0.984;2023-03-01T03:18:35;39;38;
42410;PMS5003;28056;51.112;0.984;2023-03-01T03:21:02;48;44;
42410;PMS5003;28056;51.112;0.984;2023-03-01T03:23:33;50;44;
42410;PMS5003;28056;51.112;0.984;2023-03-01T03:26:00;41;38;
42410;PMS5003;28056;51.112;0.984;2023-03-01T03:28:28;45;41;
42410;PMS5003;28056;51.112;0.984;2023-03-01T03:30:56;45;41;
42410;PMS5003;28056;51.112;0.984;2023-03-01T03:33:23;53;46;
42410;PMS5003;28056;51.112;0.984;2023-03-01T03:35:51;42;38;
42410;PMS5003;28056;51.112;0.984;2023-03-01T03:38:18;42;42;
42410;PMS5003;28056;51.112;0.984;2023-03-01T03:40:47;51;42;
42410;PMS5003;28056;51.112;0.984;2023-03-01T03:43:17;57;44;
42410;PMS5003;28056;51.112;0.984;2023-03-01T03:45:46;41;33;
42410;PMS5003;28056;51.112;0.984;2023-03-01T03:48:15;42;39;
42410;PMS5003;28056;51.112;0.984;2023-03-01T03:50:47;35;33;
42410;PMS5003;28056;51.112;0.984;2023-03-01T03:53:16;51;45;
42410;PMS5003;28056;51.112;0.984;2023-03-01T03:55:44;41;37;
42410;PMS5003;28056;51.112;0.984;2023-03-01T03:58:11;49;42;
42410;PMS5003;28056;51.112;0.984;2023-03-01T04:00:40;48;42;
42410;PMS5003;28056;51.112;0.984;2023-03-01T04:03:10;48;42;
42410;PMS5003;28056;51.112;0.984;2023-03-01T04:05:39;55;45;
42410;PMS5003;28056;51.112;0.984;2023-03-01T04:08:07;41;37;
42410;PMS5003;28056;51.112;0.984;2023-03-01T04:10:36;41;35;
42410;PMS5003;28056;51.112;0.984;2023-03-01T04:13:05;48;42;
42410;PMS5003;28056;51.112;0.984;2023-03-01T04:15:35;48;42;
42410;PMS5003;28056;51.112;0.984;2023-03-01T04:18:03;45;40;
42410;PMS5003;28056;51.112;0.984;2023-03-01T04:20:31;47;43;
42410;PMS5003;28056;51.112;0.984;2023-03-01T04:23:01;41;37;
42410;PMS5003;28056;51.112;0.984;2023-03-01T04:25:30;43;39;
42410;PMS5003;28056;51.112;0.984;2023-03-01T04:27:57;41;36;
42410;PMS5003;28056;51.112;0.984;2023-03-01T04:30:24;40;33;
42410;PMS5003;28056;51.112;0.984;2023-03-01T04:32:52;47;43;
42410;PMS5003;28056;51.112;0.984;2023-03-01T04:35:19;46;37;
42410;PMS5003;28056;51.112;0.984;2023-03-01T04:37:46;38;34;
42410;PMS5003;28056;51.112;0.984;2023-03-01T04:40:14;51;41;
42410;PMS5003;28056;51.112;0.984;2023-03-01T04:42:57;51;43;
42410;PMS5003;28056;51.112;0.984;2023-03-01T04:45:24;48;41;
42410;PMS5003;28056;51.112;0.984;2023-03-01T04:47:52;46;39;
42410;PMS5003;28056;51.112;0.984;2023-03-01T04:50:20;44;37;
42410;PMS5003;28056;51.112;0.984;2023-03-01T04:52:48;53;39;
42410;PMS5003;28056;51.112;0.984;2023-03-01T04:55:15;46;43;
42410;PMS5003;28056;51.112;0.984;2023-03-01T04:57:43;49;45;
42410;PMS5003;28056;51.112;0.984;2023-03-01T05:00:12;39;36;
42410;PMS5003;28056;51.112;0.984;2023-03-01T05:02:40;43;39;
42410;PMS5003;28056;51.112;0.984;2023-03-01T05:05:08;37;35;
42410;PMS5003;28056;51.112;0.984;2023-03-01T05:07:35;43;40;
42410;PMS5003;28056;51.112;0.984;2023-03-01T05:10:03;36;35;
42410;PMS5003;28056;51.112;0.984;2023-03-01T05:12:31;36;35;
42410;PMS5003;28056;51.112;0.984;2023-03-01T05:14:59;40;33;
42410;PMS5003;28056;51.112;0.984;2023-03-01T05:17:26;45;42;
42410;PMS5003;28056;51.112;0.984;2023-03-01T05:19:54;36;36;
42410;PMS5003;28056;51.112;0.984;2023-03-01T05:22:21;42;36;
42410;PMS5003;28056;51.112;0.984;2023-03-01T05:24:48;45;41;
42410;PMS5003;28056;51.112;0.984;2023-03-01T05:27:15;43;38;
42410;PMS5003;28056;51.112;0.984;2023-03-01T05:29:42;33;33;
42410;PMS5003;28056;51.112;0.984;2023-03-01T05:32:10;39;36;
42410;PMS5003;28056;51.112;0.984;2023-03-01T05:34:37;35;33;
42410;PMS5003;28056;51.112;0.984;2023-03-01T05:37:04;43;36;
42410;PMS5003;28056;51.112;0.984;2023-03-01T05:39:31;36;33;
42410;PMS5003;28056;51.112;0.984;2023-03-01T05:41:59;38;35;
42410;PMS5003;28056;51.112;0.984;2023-03-01T05:44:27;36;33;
42410;PMS5003;28056;51.112;0.984;2023-03-01T05:46:55;39;35;
42410;PMS5003;28056;51.112;0.984;2023-03-01T05:49:23;33;29;
42410;PMS5003;28056;51.112;0.984;2023-03-01T05:51:51;33;31;
42410;PMS5003;28056;51.112;0.984;2023-03-01T05:54:20;36;29;
42410;PMS5003;28056;51.112;0.984;2023-03-01T05:56:48;36;33;
42410;PMS5003;28056;51.112;0.984;2023-03-01T05:59:15;36;36;
42410;PMS5003;28056;51.112;0.984;2023-03-01T06:01:43;33;31;
42410;PMS5003;28056;51.112;0.984;2023-03-01T06:04:10;39;36;
42410;PMS5003;28056;51.112;0.984;2023-03-01T06:06:37;35;31;
42410;PMS5003;28056;51.112;0.984;2023-03-01T06:09:05;37;29;
42410;PMS5003;28056;51.112;0.984;2023-03-01T06:11:33;32;32;
42410;PMS5003;28056;51.112;0.984;2023-03-01T06:14:02;43;34;
42410;PMS5003;28056;51.112;0.984;2023-03-01T06:16:30;30;28;
42410;PMS5003;28056;51.112;0.984;2023-03-01T06:18:57;35;26;
42410;PMS5003;28056;51.112;0.984;2023-03-01T06:21:25;32;32;
42410;PMS5003;28056;51.112;0.984;2023-03-01T06:23:52;39;33;
42410;PMS5003;28056;51.112;0.984;2023-03-01T06:26:19;34;29;
42410;PMS5003;28056;51.112;0.984;2023-03-01T06:28:46;39;33;
42410;PMS5003;28056;51.112;0.984;2023-03-01T06:31:14;42;32;
42410;PMS5003;28056;51.112;0.984;2023-03-01T06:33:41;39;36;
42410;PMS5003;28056;51.112;0.984;2023-03-01T06:36:08;35;33;
42410;PMS5003;28056;51.112;0.984;2023-03-01T06:38:35;33;31;
42410;PMS5003;28056;51.112;0.984;2023-03-01T06:41:03;37;31;
42410;PMS5003;28056;51.112;0.984;2023-03-01T06:43:31;35;31;
42410;PMS5003;28056;51.112;0.984;2023-03-01T06:45:58;34;30;
42410;PMS5003;28056;51.112;0.984;2023-03-01T06:48:25;30;25;
42410;PMS5003;28056;51.112;0.984;2023-03-01T06:50:52;35;30;
42410;PMS5003;28056;51.112;0.984;2023-03-01T06:53:20;36;31;
42410;PMS5003;28056;51.112;0.984;2023-03-01T06:55:47;26;23;
42410;PMS5003;28056;51.112;0.984;2023-03-01T06:58:20;33;32;
42410;PMS5003;28056;51.112;0.984;2023-03-01T07:00:47;35;33;
42410;PMS5003;28056;51.112;0.984;2023-03-01T07:03:15;43;40;
42410;PMS5003;28056;51.112;0.984;2023-03-01T07:05:43;37;36;
42410;PMS5003;28056;51.112;0.984;2023-03-01T07:08:10;40;30;
42410;PMS5003;28056;51.112;0.984;2023-03-01T07:10:38;30;26;
42410;PMS5003;28056;51.112;0.984;2023-03-01T07:13:05;43;36;
42410;PMS5003;28056;51.112;0.984;2023-03-01T07:15:32;39;32;
42410;PMS5003;28056;51.112;0.984;2023-03-01T07:18:00;30;30;
42410;PMS5003;28056;51.112;0.984;2023-03-01T07:20:27;40;32;
42410;PMS5003;28056;51.112;0.984;2023-03-01T07:22:55;41;30;
42410;PMS5003;28056;51.112;0.984;2023-03-01T07:25:22;34;26;
42410;PMS5003;28056;51.112;0.984;2023-03-01T07:27:50;36;33;
42410;PMS5003;28056;51.112;0.984;2023-03-01T07:30:18;31;30;
42410;PMS5003;28056;51.112;0.984;2023-03-01T07:32:46;30;27;
42410;PMS5003;28056;51.112;0.984;2023-03-01T07:35:14;29;26;
42410;PMS5003;28056;51.112;0.984;2023-03-01T07:37:41;35;29;
42410;PMS5003;28056;51.112;0.984;2023-03-01T07:40:09;24;24;
42410;PMS5003;28056;51.112;0.984;2023-03-01T07:42:37;41;31;
42410;PMS5003;28056;51.112;0.984;2023-03-01T07:45:05;31;30;
42410;PMS5003;28056;51.112;0.984;2023-03-01T07:47:33;34;27;
42410;PMS5003;28056;51.112;0.984;2023-03-01T07:50:01;34;31;
42410;PMS5003;28056;51.112;0.984;2023-03-01T07:52:28;30;27;
42410;PMS5003;28056;51.112;0.984;2023-03-01T07:54:55;30;30;
42410;PMS5003;28056;51.112;0.984;2023-03-01T07:57:23;30;28;
42410;PMS5003;28056;51.112;0.984;2023-03-01T07:59:51;34;28;
42410;PMS5003;28056;51.112;0.984;2023-03-01T08:02:18;31;30;
42410;PMS5003;28056;51.112;0.984;2023-03-01T08:04:46;39;32;
42410;PMS5003;28056;51.112;0.984;2023-03-01T08:07:13;30;24;
42410;PMS5003;28056;51.112;0.984;2023-03-01T08:09:40;32;27;
42410;PMS5003;28056;51.112;0.984;2023-03-01T08:12:08;39;27;
42410;PMS5003;28056;51.112;0.984;2023-03-01T08:14:35;33;31;
42410;PMS5003;28056;51.112;0.984;2023-03-01T08:17:04;31;24;
42410;PMS5003;28056;51.112;0.984;2023-03-01T08:19:31;32;28;
42410;PMS5003;28056;51.112;0.984;2023-03-01T08:21:58;35;25;
42410;PMS5003;28056;51.112;0.984;2023-03-01T08:24:26;37;32;
42410;PMS5003;28056;51.112;0.984;2023-03-01T08:26:54;43;28;
42410;PMS5003;28056;51.112;0.984;2023-03-01T08:29:22;30;26;
42410;PMS5003;28056;51.112;0.984;2023-03-01T08:31:49;30;26;
42410;PMS5003;28056;51.112;0.984;2023-03-01T08:34:17;33;29;
42410;PMS5003;28056;51.112;0.984;2023-03-01T08:36:45;25;24;
42410;PMS5003;28056;51.112;0.984;2023-03-01T08:39:14;39;33;
42410;PMS5003;28056;51.112;0.984;2023-03-01T08:41:42;34;29;
42410;PMS5003;28056;51.112;0.984;2023-03-01T08:44:10;28;22;
42410;PMS5003;28056;51.112;0.984;2023-03-01T08:46:40;40;33;
42410;PMS5003;28056;51.112;0.984;2023-03-01T08:49:09;31;26;
42410;PMS5003;28056;51.112;0.984;2023-03-01T08:51:38;37;33;
42410;PMS5003;28056;51.112;0.984;2023-03-01T08:54:07;37;28;
42410;PMS5003;28056;51.112;0.984;2023-03-01T08:56:37;32;26;
42410;PMS5003;28056;51.112;0.984;2023-03-01T08:59:04;34;33;
42410;PMS5003;28056;51.112;0.984;2023-03-01T09:01:32;32;25;
42410;PMS5003;28056;51.112;0.984;2023-03-01T09:03:59;27;27;
42410;PMS5003;28056;51.112;0.984;2023-03-01T09:06:27;27;25;
42410;PMS5003;28056;51.112;0.984;2023-03-01T09:08:57;22;22;
42410;PMS5003;28056;51.112;0.984;2023-03-01T09:11:25;29;25;
42410;PMS5003;28056;51.112;0.984;2023-03-01T09:13:54;26;25;
42410;PMS5003;28056;51.112;0.984;2023-03-01T09:16:22;26;26;
42410;PMS5003;28056;51.112;0.984;2023-03-01T09:18:51;29;26;
42410;PMS5003;28056;51.112;0.984;2023-03-01T09:21:20;23;19;
42410;PMS5003;28056;51.112;0.984;2023-03-01T09:23:49;30;27;
42410;PMS5003;28056;51.112;0.984;2023-03-01T09:26:17;22;21;
42410;PMS5003;28056;51.112;0.984;2023-03-01T09:28:47;32;29;
42410;PMS5003;28056;51.112;0.984;2023-03-01T09:31:16;30;24;
42410;PMS5003;28056;51.112;0.984;2023-03-01T09:33:45;26;26;
42410;PMS5003;28056;51.112;0.984;2023-03-01T09:36:14;23;20;
42410;PMS5003;28056;51.112;0.984;2023-03-01T09:38:44;24;24;
42410;PMS5003;28056;51.112;0.984;2023-03-01T09:41:17;23;23;
42410;PMS5003;28056;51.112;0.984;2023-03-01T09:44:02;27;26;
42410;PMS5003;28056;51.112;0.984;2023-03-01T09:46:40;28;28;
42410;PMS5003;28056;51.112;0.984;2023-03-01T09:49:10;31;24;
42410;PMS5003;28056;51.112;0.984;2023-03-01T09:51:42;26;23;
42410;PMS5003;28056;51.112;0.984;2023-03-01T09:54:14;27;23;
42410;PMS5003;28056;51.112;0.984;2023-03-01T09:56:44;28;23;
42410;PMS5003;28056;51.112;0.984;2023-03-01T09:59:28;20;20;
42410;PMS5003;28056;51.112;0.984;2023-03-01T10:02:07;23;22;
42410;PMS5003;28056;51.112;0.984;2023-03-01T10:04:48;23;19;
42410;PMS5003;28056;51.112;0.984;2023-03-01T10:07:20;24;20;
42410;PMS5003;28056;51.112;0.984;2023-03-01T10:09:53;21;20;
42410;PMS5003;28056;51.112;0.984;2023-03-01T10:12:22;24;18;
42410;PMS5003;28056;51.112;0.984;2023-03-01T10:14:54;20;16;
42410;PMS5003;28056;51.112;0.984;2023-03-01T10:17:28;19;18;
42410;PMS5003;28056;51.112;0.984;2023-03-01T10:20:13;24;21;
42410;PMS5003;28056;51.112;0.984;2023-03-01T10:22:46;14;12;
42410;PMS5003;28056;51.112;0.984;2023-03-01T10:25:15;12;11;
42410;PMS5003;28056;51.112;0.984;2023-03-01T10:27:51;19;15;
42410;PMS5003;28056;51.112;0.984;2023-03-01T10:30:21;17;14;
42410;PMS5003;28056;51.112;0.984;2023-03-01T10:32:57;16;15;
42410;PMS5003;28056;51.112;0.984;2023-03-01T10:35:27;16;15;
42410;PMS5003;28056;51.112;0.984;2023-03-01T10:37:57;16;13;
42410;PMS5003;28056;51.112;0.984;2023-03-01T10:40:28;16;13;
42410;PMS5003;28056;51.112;0.984;2023-03-01T10:42:57;13;13;
42410;PMS5003;28056;51.112;0.984;2023-03-01T10:45:30;12;9;
42410;PMS5003;28056;51.112;0.984;2023-03-01T10:48:05;9;9;
42410;PMS5003;28056;51.112;0.984;2023-03-01T10:50:39;8;8;
42410;PMS5003;28056;51.112;0.984;2023-03-01T10:53:16;7;7;
42410;PMS5003;28056;51.112;0.984;2023-03-01T10:55:56;8;7;
42410;PMS5003;28056;51.112;0.984;2023-03-01T10:58:24;8;7;
42410;PMS5003;28056;51.112;0.984;2023-03-01T11:00:52;7;7;
42410;PMS5003;28056;51.112;0.984;2023-03-01T11:03:23;6;6;
42410;PMS5003;28056;51.112;0.984;2023-03-01T11:05:52;10;8;
42410;PMS5003;28056;51.112;0.984;2023-03-01T11:08:32;7;7;
42410;PMS5003;28056;51.112;0.984;2023-03-01T11:11:05;11;10;
42410;PMS5003;28056;51.112;0.984;2023-03-01T11:13:46;8;8;
42410;PMS5003;28056;51.112;0.984;2023-03-01T11:16:25;7;7;
42410;PMS5003;28056;51.112;0.984;2023-03-01T11:18:56;8;8;
42410;PMS5003;28056;51.112;0.984;2023-03-01T11:21:26;8;6;
42410;PMS5003;28056;51.112;0.984;2023-03-01T11:23:58;7;7;
42410;PMS5003;28056;51.112;0.984;2023-03-01T11:26:28;6;6;
42410;PMS5003;28056;51.112;0.984;2023-03-01T11:29:02;7;6;
42410;PMS5003;28056;51.112;0.984;2023-03-01T11:31:36;6;6;
42410;PMS5003;28056;51.112;0.984;2023-03-01T11:34:05;5;5;
42410;PMS5003;28056;51.112;0.984;2023-03-01T11:36:40;5;5;
42410;PMS5003;28056;51.112;0.984;2023-03-01T11:39:15;5;5;
42410;PMS5003;28056;51.112;0.984;2023-03-01T11:41:52;6;6;
42410;PMS5003;28056;51.112;0.984;2023-03-01T11:44:28;6;6;
42410;PMS5003;28056;51.112;0.984;2023-03-01T11:47:08;2;2;
42410;PMS5003;28056;51.112;0.984;2023-03-01T11:49:48;5;5;
42410;PMS5003;28056;51.112;0.984;2023-03-01T11:52:28;3;3;
42410;PMS5003;28056;51.112;0.984;2023-03-01T11:55:08;6;6;
42410;PMS5003;28056;51.112;0.984;2023-03-01T11:57:53;5;3;
42410;PMS5003;28056;51.112;0.984;2023-03-01T12:00:44;3;3;
42410;PMS5003;28056;51.112;0.984;2023-03-01T12:03:27;5;5;
42410;PMS5003;28056;51.112;0.984;2023-03-01T12:06:04;3;3;
42410;PMS5003;28056;51.112;0.984;2023-03-01T12:09:00;5;5;
42410;PMS5003;28056;51.112;0.984;2023-03-01T12:11:42;5;5;
42410;PMS5003;28056;51.112;0.984;2023-03-01T12:14:27;6;3;
42410;PMS5003;28056;51.112;0.984;2023-03-01T12:17:09;2;2;
42410;PMS5003;28056;51.112;0.984;2023-03-01T12:19:54;2;2;
42410;PMS5003;28056;51.112;0.984;2023-03-01T12:22:35;2;2;
42410;PMS5003;28056;51.112;0.984;2023-03-01T12:25:15;7;6;
42410;PMS5003;28056;51.112;0.984;2023-03-01T12:27:52;2;2;
42410;PMS5003;28056;51.112;0.984;2023-03-01T12:30:34;3;3;
42410;PMS5003;28056;51.112;0.984;2023-03-01T12:33:17;2;2;
42410;PMS5003;28056;51.112;0.984;2023-03-01T12:36:03;5;3;
42410;PMS5003;28056;51.112;0.984;2023-03-01T12:39:17;2;2;
42410;PMS5003;28056;51.112;0.984;2023-03-01T12:41:59;2;2;
42410;PMS5003;28056;51.112;0.984;2023-03-01T12:44:41;2;2;
42410;PMS5003;28056;51.112;0.984;2023-03-01T12:47:22;2;2;
42410;PMS5003;28056;51.112;0.984;2023-03-01T12:50:01;6;2;
42410;PMS5003;28056;51.112;0.984;2023-03-01T12:52:39;1;1;
42410;PMS5003;28056;51.112;0.984;2023-03-01T12:55:18;2;2;
42410;PMS5003;28056;51.112;0.984;2023-03-01T12:57:55;3;3;
42410;PMS5003;28056;51.112;0.984;2023-03-01T13:00:31;3;3;
42410;PMS5003;28056;51.112;0.984;2023-03-01T13:03:06;2;2;
42410;PMS5003;28056;51.112;0.984;2023-03-01T13:05:47;5;3;
42410;PMS5003;28056;51.112;0.984;2023-03-01T13:08:31;1;1;
42410;PMS5003;28056;51.112;0.984;2023-03-01T13:11:06;3;3;
42410;PMS5003;28056;51.112;0.984;2023-03-01T13:13:43;1;1;
42410;PMS5003;28056;51.112;0.984;2023-03-01T13:16:21;3;2;
42410;PMS5003;28056;51.112;0.984;2023-03-01T13:19:06;2;2;
42410;PMS5003;28056;51.112;0.984;2023-03-01T13:21:39;2;2;
42410;PMS5003;28056;51.112;0.984;2023-03-01T13:24:23;5;3;
42410;PMS5003;28056;51.112;0.984;2023-03-01T13:27:08;1;1;
42410;PMS5003;28056;51.112;0.984;2023-03-01T13:29:43;3;1;
42410;PMS5003;28056;51.112;0.984;2023-03-01T13:32:18;2;2;
42410;PMS5003;28056;51.112;0.984;2023-03-01T13:34:48;2;2;
42410;PMS5003;28056;51.112;0.984;2023-03-01T13:37:22;3;3;
42410;PMS5003;28056;51.112;0.984;2023-03-01T13:39:53;2;2;
42410;PMS5003;28056;51.112;0.984;2023-03-01T13:42:38;1;1;
42410;PMS5003;28056;51.112;0.984;2023-03-01T13:45:27;1;1;
42410;PMS5003;28056;51.112;0.984;2023-03-01T13:48:04;5;2;
42410;PMS5003;28056;51.112;0.984;2023-03-01T13:50:38;2;2;
42410;PMS5003;28056;51.112;0.984;2023-03-01T13:53:16;2;2;
42410;PMS5003;28056;51.112;0.984;2023-03-01T13:55:47;2;2;
42410;PMS5003;28056;51.112;0.984;2023-03-01T13:58:22;2;2;
42410;PMS5003;28056;51.112;0.984;2023-03-01T14:00:56;3;3;
42410;PMS5003;28056;51.112;0.984;2023-03-01T14:03:26;2;2;
42410;PMS5003;28056;51.112;0.984;2023-03-01T14:05:59;3;2;
42410;PMS5003;28056;51.112;0.984;2023-03-01T14:08:29;3;2;
42410;PMS5003;28056;51.112;0.984;2023-03-01T14:11:01;2;2;
42410;PMS5003;28056;51.112;0.984;2023-03-01T14:13:51;3;3;
42410;PMS5003;28056;51.112;0.984;2023-03-01T14:16:33;3;3;
42410;PMS5003;28056;51.112;0.984;2023-03-01T14:19:12;6;6;
42410;PMS5003;28056;51.112;0.984;2023-03-01T14:21:43;5;3;
42410;PMS5003;28056;51.112;0.984;2023-03-01T14:24:20;6;3;
42410;PMS5003;28056;51.112;0.984;2023-03-01T14:26:49;3;2;
42410;PMS5003;28056;51.112;0.984;2023-03-01T14:29:24;5;5;
42410;PMS5003;28056;51.112;0.984;2023-03-01T14:31:53;6;6;
42410;PMS5003;28056;51.112;0.984;2023-03-01T14:34:20;7;7;
42410;PMS5003;28056;51.112;0.984;2023-03-01T14:36:49;7;7;
42410;PMS5003;28056;51.112;0.984;2023-03-01T14:39:17;6;4;
42410;PMS5003;28056;51.112;0.984;2023-03-01T14:41:46;4;3;
42410;PMS5003;28056;51.112;0.984;2023-03-01T14:44:15;3;2;
42410;PMS5003;28056;51.112;0.984;2023-03-01T14:46:46;3;2;
42410;PMS5003;28056;51.112;0.984;2023-03-01T14:49:13;1;1;
42410;PMS5003;28056;51.112;0.984;2023-03-01T14:51:46;2;2;
42410;PMS5003;28056;51.112;0.984;2023-03-01T14:54:20;6;6;
42410;PMS5003;28056;51.112;0.984;2023-03-01T14:56:51;3;3;
42410;PMS5003;28056;51.112;0.984;2023-03-01T14:59:20;2;2;
42410;PMS5003;28056;51.112;0.984;2023-03-01T15:01:49;7;5;
42410;PMS5003;28056;51.112;0.984;2023-03-01T15:04:16;4;2;
42410;PMS5003;28056;51.112;0.984;2023-03-01T15:06:46;2;2;
42410;PMS5003;28056;51.112;0.984;2023-03-01T15:09:17;2;1;
42410;PMS5003;28056;51.112;0.984;2023-03-01T15:11:46;1;1;
42410;PMS5003;28056;51.112;0.984;2023-03-01T15:14:26;3;3;
42410;PMS5003;28056;51.112;0.984;2023-03-01T15:16:56;2;2;
42410;PMS5003;28056;51.112;0.984;2023-03-01T15:19:23;1;1;
42410;PMS5003;28056;51.112;0.984;2023-03-01T15:21:55;1;1;
42410;PMS5003;28056;51.112;0.984;2023-03-01T15:24:23;2;2;
42410;PMS5003;28056;51.112;0.984;2023-03-01T15:26:53;1;1;
42410;PMS5003;28056;51.112;0.984;2023-03-01T15:29:24;3;3;
42410;PMS5003;28056;51.112;0.984;2023-03-01T15:31:54;2;2;
42410;PMS5003;28056;51.112;0.984;2023-03-01T15:34:24;3;1;
42410;PMS5003;28056;51.112;0.984;2023-03-01T15:36:53;1;1;
42410;PMS5003;28056;51.112;0.984;2023-03-01T15:39:37;3;2;
42410;PMS5003;28056;51.112;0.984;2023-03-01T15:42:07;2;2;
42410;PMS5003;28056;51.112;0.984;2023-03-01T15:44:36;3;1;
42410;PMS5003;28056;51.112;0.984;2023-03-01T15:47:07;2;2;
42410;PMS5003;28056;51.112;0.984;2023-03-01T15:49:50;3;1;
42410;PMS5003;28056;51.112;0.984;2023-03-01T15:52:22;3;2;
42410;PMS5003;28056;51.112;0.984;2023-03-01T15:54:51;2;1;
42410;PMS5003;28056;51.112;0.984;2023-03-01T15:57:18;0;0;
42410;PMS5003;28056;51.112;0.984;2023-03-01T15:59:45;1;0;
42410;PMS5003;28056;51.112;0.984;2023-03-01T16:02:12;2;1;
42410;PMS5003;28056;51.112;0.984;2023-03-01T16:04:40;1;1;
42410;PMS5003;28056;51.112;0.984;2023-03-01T16:07:08;1;1;
42410;PMS5003;28056;51.112;0.984;2023-03-01T16:09:35;3;1;
42410;PMS5003;28056;51.112;0.984;2023-03-01T16:12:02;1;1;
42410;PMS5003;28056;51.112;0.984;2023-03-01T16:14:30;1;1;
42410;PMS5003;28056;51.112;0.984;2023-03-01T16:16:57;2;2;
42410;PMS5003;28056;51.112;0.984;2023-03-01T16:19:24;1;1;
42410;PMS5003;28056;51.112;0.984;2023-03-01T16:21:51;3;3;
42410;PMS5003;28056;51.112;0.984;2023-03-01T16:24:18;1;1;
42410;PMS5003;28056;51.112;0.984;2023-03-01T16:26:45;2;2;
42410;PMS5003;28056;51.112;0.984;2023-03-01T16:29:13;5;2;
42410;PMS5003;28056;51.112;0.984;2023-03-01T16:31:40;2;2;
42410;PMS5003;28056;51.112;0.984;2023-03-01T16:34:07;2;2;
42410;PMS5003;28056;51.112;0.984;2023-03-01T16:36:34;3;1;
42410;PMS5003;28056;51.112;0.984;2023-03-01T16:39:01;3;1;
42410;PMS5003;28056;51.112;0.984;2023-03-01T16:41:28;1;1;
42410;PMS5003;28056;51.112;0.984;2023-03-01T16:43:56;2;2;
42410;PMS5003;28056;51.112;0.984;2023-03-01T16:46:24;1;1;
42410;PMS5003;28056;51.112;0.984;2023-03-01T16:48:52;1;1;
42410;PMS5003;28056;51.112;0.984;2023-03-01T16:51:21;2;1;
42410;PMS5003;28056;51.112;0.984;2023-03-01T16:53:50;3;2;
42410;PMS5003;28056;51.112;0.984;2023-03-01T16:56:18;1;1;
42410;PMS5003;28056;51.112;0.984;2023-03-01T16:58:45;4;1;